sensor_id;sensor_type;location;lat;lon;timestamp;P1;durP1;ratioP1;P2;durP2;ratioP2
23384;SDS011;11865;45.394;10.978;2023-01-28T00:01:06;46.35;;;19.52;;
23384;SDS011;11865;45.394;10.978;2023-01-28T00:03:34;43.20;;;18.45;;
23384;SDS011;11865;45.394;10.978;2023-01-28T00:06:03;40.28;;;19.13;;
23384;SDS011;11865;45.394;10.978;2023-01-28T00:08:49;38.00;;;19.50;;
23384;SDS011;11865;45.394;10.978;2023-01-28T00:11:16;35.50;;;18.30;;
23384;SDS011;11865;45.394;10.978;2023-01-28T00:13:44;42.15;;;17.67;;
23384;SDS011;11865;45.394;10.978;2023-01-28T00:16:11;32.45;;;13.98;;
23384;SDS011;11865;45.394;10.978;2023-01-28T00:18:39;31.00;;;13.95;;
23384;SDS011;11865;45.394;10.978;2023-01-28T00:23:36;30.48;;;14.27;;
23384;SDS011;11865;45.394;10.978;2023-01-28T00:26:06;29.80;;;13.20;;
23384;SDS011;11865;45.394;10.978;2023-01-28T00:28:38;29.65;;;13.52;;
23384;SDS011;11865;45.394;10.978;2023-01-28T00:31:06;25.73;;;13.00;;
23384;SDS011;11865;45.394;10.978;2023-01-28T00:33:36;25.50;;;12.95;;
23384;SDS011;11865;45.394;10.978;2023-01-28T00:36:04;24.40;;;12.93;;
23384;SDS011;11865;45.394;10.978;2023-01-28T00:38:32;25.60;;;12.65;;
23384;SDS011;11865;45.394;10.978;2023-01-28T00:41:11;21.80;;;11.13;;
23384;SDS011;11865;45.394;10.978;2023-01-28T00:43:40;22.80;;;12.13;;
23384;SDS011;11865;45.394;10.978;2023-01-28T00:46:09;25.50;;;12.77;;
23384;SDS011;11865;45.394;10.978;2023-01-28T00:48:38;30.27;;;12.68;;
23384;SDS011;11865;45.394;10.978;2023-01-28T00:51:08;27.67;;;11.45;;
23384;SDS011;11865;45.394;10.978;2023-01-28T00:53:37;25.92;;;12.30;;
23384;SDS011;11865;45.394;10.978;2023-01-28T00:56:06;25.70;;;12.68;;
23384;SDS011;11865;45.394;10.978;2023-01-28T00:58:35;22.88;;;11.98;;
23384;SDS011;11865;45.394;10.978;2023-01-28T01:01:11;23.63;;;12.10;;
23384;SDS011;11865;45.394;10.978;2023-01-28T01:03:42;28.42;;;12.30;;
23384;SDS011;11865;45.394;10.978;2023-01-28T01:06:10;25.88;;;12.63;;
23384;SDS011;11865;45.394;10.978;2023-01-28T01:08:39;21.13;;;11.45;;
23384;SDS011;11865;45.394;10.978;2023-01-28T01:11:10;28.13;;;12.18;;
23384;SDS011;11865;45.394;10.978;2023-01-28T01:13:38;41.83;;;14.80;;
23384;SDS011;11865;45.394;10.978;2023-01-28T01:16:12;28.13;;;12.23;;
23384;SDS011;11865;45.394;10.978;2023-01-28T01:18:42;26.92;;;13.13;;
23384;SDS011;11865;45.394;10.978;2023-01-28T01:21:11;27.10;;;12.18;;
23384;SDS011;11865;45.394;10.978;2023-01-28T01:23:44;24.75;;;12.32;;
23384;SDS011;11865;45.394;10.978;2023-01-28T01:26:12;22.02;;;12.77;;
23384;SDS011;11865;45.394;10.978;2023-01-28T01:28:40;23.65;;;11.73;;
23384;SDS011;11865;45.394;10.978;2023-01-28T01:31:12;26.25;;;12.55;;
23384;SDS011;11865;45.394;10.978;2023-01-28T01:33:44;22.50;;;11.45;;
23384;SDS011;11865;45.394;10.978;2023-01-28T01:36:14;35.92;;;12.65;;
23384;SDS011;11865;45.394;10.978;2023-01-28T01:38:44;22.33;;;11.27;;
23384;SDS011;11865;45.394;10.978;2023-01-28T01:41:28;25.58;;;12.02;;
23384;SDS011;11865;45.394;10.978;2023-01-28T01:43:59;25.15;;;11.32;;
23384;SDS011;11865;45.394;10.978;2023-01-28T01:46:39;24.52;;;12.05;;
23384;SDS011;11865;45.394;10.978;2023-01-28T01:49:13;25.23;;;11.95;;
23384;SDS011;11865;45.394;10.978;2023-01-28T01:51:53;24.90;;;11.63;;
23384;SDS011;11865;45.394;10.978;2023-01-28T01:54:26;26.90;;;11.15;;
23384;SDS011;11865;45.394;10.978;2023-01-28T01:56:56;22.10;;;11.18;;
23384;SDS011;11865;45.394;10.978;2023-01-28T01:59:26;23.23;;;11.57;;
23384;SDS011;11865;45.394;10.978;2023-01-28T02:01:55;18.55;;;10.10;;
23384;SDS011;11865;45.394;10.978;2023-01-28T02:04:38;15.63;;;9.18;;
23384;SDS011;11865;45.394;10.978;2023-01-28T02:07:08;27.17;;;10.02;;
23384;SDS011;11865;45.394;10.978;2023-01-28T02:09:39;19.52;;;9.30;;
23384;SDS011;11865;45.394;10.978;2023-01-28T02:12:08;21.65;;;9.82;;
23384;SDS011;11865;45.394;10.978;2023-01-28T02:14:44;18.88;;;9.48;;
23384;SDS011;11865;45.394;10.978;2023-01-28T02:17:26;21.48;;;9.68;;
23384;SDS011;11865;45.394;10.978;2023-01-28T02:28:17;23.75;;;10.80;;
23384;SDS011;11865;45.394;10.978;2023-01-28T02:31:20;21.00;;;9.82;;
23384;SDS011;11865;45.394;10.978;2023-01-28T02:39:43;19.08;;;9.98;;
23384;SDS011;11865;45.394;10.978;2023-01-28T02:42:18;19.80;;;10.45;;
23384;SDS011;11865;45.394;10.978;2023-01-28T02:44:51;23.90;;;10.15;;
23384;SDS011;11865;45.394;10.978;2023-01-28T02:47:19;19.20;;;10.38;;
23384;SDS011;11865;45.394;10.978;2023-01-28T02:50:08;21.80;;;9.88;;
23384;SDS011;11865;45.394;10.978;2023-01-28T02:58:37;20.95;;;10.27;;
23384;SDS011;11865;45.394;10.978;2023-01-28T03:04:15;19.13;;;10.20;;
23384;SDS011;11865;45.394;10.978;2023-01-28T03:06:50;22.02;;;10.13;;
23384;SDS011;11865;45.394;10.978;2023-01-28T03:09:23;22.55;;;10.52;;
23384;SDS011;11865;45.394;10.978;2023-01-28T03:12:04;18.95;;;9.70;;
23384;SDS011;11865;45.394;10.978;2023-01-28T03:15:08;23.00;;;11.15;;
23384;SDS011;11865;45.394;10.978;2023-01-28T03:20:56;30.65;;;15.00;;
23384;SDS011;11865;45.394;10.978;2023-01-28T03:23:55;33.83;;;15.43;;
23384;SDS011;11865;45.394;10.978;2023-01-28T03:26:55;33.47;;;14.93;;
23384;SDS011;11865;45.394;10.978;2023-01-28T03:30:04;31.00;;;15.48;;
23384;SDS011;11865;45.394;10.978;2023-01-28T03:33:02;31.02;;;14.60;;
23384;SDS011;11865;45.394;10.978;2023-01-28T03:35:49;29.48;;;13.73;;
23384;SDS011;11865;45.394;10.978;2023-01-28T03:38:35;24.95;;;12.85;;
23384;SDS011;11865;45.394;10.978;2023-01-28T03:41:11;27.13;;;13.63;;
23384;SDS011;11865;45.394;10.978;2023-01-28T03:43:39;33.40;;;14.48;;
23384;SDS011;11865;45.394;10.978;2023-01-28T03:46:08;31.38;;;14.38;;
23384;SDS011;11865;45.394;10.978;2023-01-28T03:48:36;28.63;;;13.80;;
23384;SDS011;11865;45.394;10.978;2023-01-28T03:51:05;29.92;;;14.07;;
23384;SDS011;11865;45.394;10.978;2023-01-28T03:53:33;29.10;;;13.18;;
23384;SDS011;11865;45.394;10.978;2023-01-28T03:56:00;25.95;;;12.93;;
23384;SDS011;11865;45.394;10.978;2023-01-28T03:58:28;24.17;;;12.20;;
23384;SDS011;11865;45.394;10.978;2023-01-28T04:01:13;27.25;;;13.45;;
23384;SDS011;11865;45.394;10.978;2023-01-28T04:03:41;27.30;;;12.60;;
23384;SDS011;11865;45.394;10.978;2023-01-28T04:06:13;27.13;;;12.88;;
23384;SDS011;11865;45.394;10.978;2023-01-28T04:09:01;30.20;;;13.13;;
23384;SDS011;11865;45.394;10.978;2023-01-28T04:11:39;29.60;;;13.70;;
23384;SDS011;11865;45.394;10.978;2023-01-28T04:14:08;26.60;;;12.50;;
23384;SDS011;11865;45.394;10.978;2023-01-28T04:16:46;30.10;;;12.90;;
23384;SDS011;11865;45.394;10.978;2023-01-28T04:19:16;30.10;;;13.02;;
23384;SDS011;11865;45.394;10.978;2023-01-28T04:21:44;25.70;;;12.00;;
23384;SDS011;11865;45.394;10.978;2023-01-28T04:24:12;24.85;;;13.07;;
23384;SDS011;11865;45.394;10.978;2023-01-28T04:26:41;26.70;;;12.43;;
23384;SDS011;11865;45.394;10.978;2023-01-28T04:29:09;27.38;;;12.02;;
23384;SDS011;11865;45.394;10.978;2023-01-28T04:31:37;25.80;;;12.07;;
23384;SDS011;11865;45.394;10.978;2023-01-28T04:34:40;26.40;;;12.23;;
23384;SDS011;11865;45.394;10.978;2023-01-28T04:37:34;24.90;;;12.15;;
23384;SDS011;11865;45.394;10.978;2023-01-28T04:40:33;24.25;;;12.45;;
23384;SDS011;11865;45.394;10.978;2023-01-28T04:43:08;23.17;;;12.02;;
23384;SDS011;11865;45.394;10.978;2023-01-28T04:45:58;22.15;;;12.23;;
23384;SDS011;11865;45.394;10.978;2023-01-28T04:48:41;24.40;;;12.50;;
23384;SDS011;11865;45.394;10.978;2023-01-28T04:51:19;23.27;;;12.75;;
23384;SDS011;11865;45.394;10.978;2023-01-28T04:54:15;22.08;;;11.45;;
23384;SDS011;11865;45.394;10.978;2023-01-28T04:56:43;23.85;;;11.30;;
23384;SDS011;11865;45.394;10.978;2023-01-28T04:59:10;24.05;;;12.32;;
23384;SDS011;11865;45.394;10.978;2023-01-28T05:01:38;26.90;;;12.40;;
23384;SDS011;11865;45.394;10.978;2023-01-28T05:04:06;27.90;;;12.15;;
23384;SDS011;11865;45.394;10.978;2023-01-28T05:06:36;21.40;;;11.73;;
23384;SDS011;11865;45.394;10.978;2023-01-28T05:11:36;27.00;;;12.55;;
23384;SDS011;11865;45.394;10.978;2023-01-28T05:14:05;22.42;;;11.43;;
23384;SDS011;11865;45.394;10.978;2023-01-28T05:17:02;27.45;;;12.38;;
23384;SDS011;11865;45.394;10.978;2023-01-28T05:19:29;30.05;;;12.43;;
23384;SDS011;11865;45.394;10.978;2023-01-28T05:21:58;26.63;;;12.63;;
23384;SDS011;11865;45.394;10.978;2023-01-28T05:24:31;26.35;;;12.98;;
23384;SDS011;11865;45.394;10.978;2023-01-28T05:26:58;30.75;;;13.60;;
23384;SDS011;11865;45.394;10.978;2023-01-28T05:29:26;27.88;;;12.73;;
23384;SDS011;11865;45.394;10.978;2023-01-28T05:31:53;27.02;;;13.05;;
23384;SDS011;11865;45.394;10.978;2023-01-28T05:34:21;28.85;;;12.80;;
23384;SDS011;11865;45.394;10.978;2023-01-28T05:36:49;28.88;;;12.98;;
23384;SDS011;11865;45.394;10.978;2023-01-28T05:39:43;28.30;;;14.10;;
23384;SDS011;11865;45.394;10.978;2023-01-28T05:42:10;36.40;;;15.27;;
23384;SDS011;11865;45.394;10.978;2023-01-28T05:44:43;28.40;;;14.85;;
23384;SDS011;11865;45.394;10.978;2023-01-28T05:47:37;25.58;;;13.50;;
23384;SDS011;11865;45.394;10.978;2023-01-28T05:50:40;30.58;;;14.68;;
23384;SDS011;11865;45.394;10.978;2023-01-28T05:53:13;31.80;;;13.90;;
23384;SDS011;11865;45.394;10.978;2023-01-28T05:55:46;31.77;;;13.32;;
23384;SDS011;11865;45.394;10.978;2023-01-28T05:58:16;29.65;;;13.20;;
23384;SDS011;11865;45.394;10.978;2023-01-28T06:00:44;30.63;;;13.25;;
23384;SDS011;11865;45.394;10.978;2023-01-28T06:03:12;29.88;;;14.60;;
23384;SDS011;11865;45.394;10.978;2023-01-28T06:05:42;37.00;;;13.88;;
23384;SDS011;11865;45.394;10.978;2023-01-28T06:08:10;32.85;;;15.30;;
23384;SDS011;11865;45.394;10.978;2023-01-28T06:10:37;31.92;;;14.90;;
23384;SDS011;11865;45.394;10.978;2023-01-28T06:13:05;36.25;;;15.63;;
23384;SDS011;11865;45.394;10.978;2023-01-28T06:15:49;32.92;;;14.27;;
23384;SDS011;11865;45.394;10.978;2023-01-28T06:18:47;31.85;;;13.45;;
23384;SDS011;11865;45.394;10.978;2023-01-28T06:21:14;39.97;;;15.45;;
23384;SDS011;11865;45.394;10.978;2023-01-28T06:23:42;40.88;;;15.23;;
23384;SDS011;11865;45.394;10.978;2023-01-28T06:26:09;40.50;;;16.23;;
23384;SDS011;11865;45.394;10.978;2023-01-28T06:28:39;28.80;;;14.65;;
23384;SDS011;11865;45.394;10.978;2023-01-28T06:31:07;38.40;;;14.20;;
23384;SDS011;11865;45.394;10.978;2023-01-28T06:33:35;33.42;;;15.32;;
23384;SDS011;11865;45.394;10.978;2023-01-28T06:36:03;28.55;;;13.38;;
23384;SDS011;11865;45.394;10.978;2023-01-28T06:38:32;30.60;;;13.98;;
23384;SDS011;11865;45.394;10.978;2023-01-28T06:41:00;31.13;;;14.40;;
23384;SDS011;11865;45.394;10.978;2023-01-28T06:43:27;30.90;;;14.20;;
23384;SDS011;11865;45.394;10.978;2023-01-28T06:45:56;31.95;;;13.80;;
23384;SDS011;11865;45.394;10.978;2023-01-28T06:48:25;31.05;;;13.35;;
23384;SDS011;11865;45.394;10.978;2023-01-28T06:50:53;32.92;;;14.15;;
23384;SDS011;11865;45.394;10.978;2023-01-28T06:53:21;32.20;;;14.73;;
23384;SDS011;11865;45.394;10.978;2023-01-28T06:55:48;26.83;;;12.95;;
23384;SDS011;11865;45.394;10.978;2023-01-28T06:58:16;37.00;;;14.95;;
23384;SDS011;11865;45.394;10.978;2023-01-28T07:00:43;40.47;;;17.48;;
23384;SDS011;11865;45.394;10.978;2023-01-28T07:03:11;39.92;;;19.13;;
23384;SDS011;11865;45.394;10.978;2023-01-28T07:05:39;36.80;;;19.08;;
23384;SDS011;11865;45.394;10.978;2023-01-28T07:08:06;41.42;;;20.83;;
23384;SDS011;11865;45.394;10.978;2023-01-28T07:10:34;37.20;;;19.75;;
23384;SDS011;11865;45.394;10.978;2023-01-28T07:13:02;41.78;;;17.08;;
23384;SDS011;11865;45.394;10.978;2023-01-28T07:15:29;32.08;;;16.55;;
23384;SDS011;11865;45.394;10.978;2023-01-28T07:17:57;30.05;;;15.13;;
23384;SDS011;11865;45.394;10.978;2023-01-28T07:20:25;32.65;;;14.40;;
23384;SDS011;11865;45.394;10.978;2023-01-28T07:22:53;34.88;;;14.60;;
23384;SDS011;11865;45.394;10.978;2023-01-28T07:25:20;31.63;;;13.82;;
23384;SDS011;11865;45.394;10.978;2023-01-28T07:27:49;34.92;;;14.50;;
23384;SDS011;11865;45.394;10.978;2023-01-28T07:30:18;32.05;;;13.68;;
23384;SDS011;11865;45.394;10.978;2023-01-28T07:32:51;29.40;;;14.38;;
23384;SDS011;11865;45.394;10.978;2023-01-28T07:35:20;29.15;;;14.38;;
23384;SDS011;11865;45.394;10.978;2023-01-28T07:37:54;29.95;;;14.57;;
23384;SDS011;11865;45.394;10.978;2023-01-28T07:40:24;42.33;;;16.42;;
23384;SDS011;11865;45.394;10.978;2023-01-28T07:42:53;35.33;;;16.90;;
23384;SDS011;11865;45.394;10.978;2023-01-28T07:45:22;39.08;;;15.18;;
23384;SDS011;11865;45.394;10.978;2023-01-28T07:50:24;36.83;;;14.32;;
23384;SDS011;11865;45.394;10.978;2023-01-28T07:52:52;31.73;;;12.98;;
23384;SDS011;11865;45.394;10.978;2023-01-28T07:55:20;28.65;;;12.93;;
23384;SDS011;11865;45.394;10.978;2023-01-28T07:57:51;29.00;;;14.50;;
23384;SDS011;11865;45.394;10.978;2023-01-28T08:00:21;44.35;;;15.57;;
23384;SDS011;11865;45.394;10.978;2023-01-28T08:02:53;34.78;;;15.13;;
23384;SDS011;11865;45.394;10.978;2023-01-28T08:05:22;31.08;;;14.65;;
23384;SDS011;11865;45.394;10.978;2023-01-28T08:07:53;32.10;;;15.25;;
23384;SDS011;11865;45.394;10.978;2023-01-28T08:10:20;36.60;;;15.45;;
23384;SDS011;11865;45.394;10.978;2023-01-28T08:12:51;42.00;;;16.42;;
23384;SDS011;11865;45.394;10.978;2023-01-28T08:15:20;29.52;;;14.93;;
23384;SDS011;11865;45.394;10.978;2023-01-28T08:17:48;39.30;;;16.00;;
23384;SDS011;11865;45.394;10.978;2023-01-28T08:20:16;47.60;;;18.20;;
23384;SDS011;11865;45.394;10.978;2023-01-28T08:22:44;31.90;;;15.85;;
23384;SDS011;11865;45.394;10.978;2023-01-28T08:25:11;39.30;;;16.27;;
23384;SDS011;11865;45.394;10.978;2023-01-28T08:27:39;28.77;;;14.75;;
23384;SDS011;11865;45.394;10.978;2023-01-28T08:30:07;37.75;;;16.10;;
23384;SDS011;11865;45.394;10.978;2023-01-28T08:32:35;37.05;;;15.60;;
23384;SDS011;11865;45.394;10.978;2023-01-28T08:35:04;47.33;;;17.67;;
23384;SDS011;11865;45.394;10.978;2023-01-28T08:37:33;35.38;;;16.58;;
23384;SDS011;11865;45.394;10.978;2023-01-28T08:40:01;33.33;;;15.85;;
23384;SDS011;11865;45.394;10.978;2023-01-28T08:42:28;33.17;;;16.33;;
23384;SDS011;11865;45.394;10.978;2023-01-28T08:44:56;32.30;;;15.52;;
23384;SDS011;11865;45.394;10.978;2023-01-28T08:47:23;33.63;;;16.33;;
23384;SDS011;11865;45.394;10.978;2023-01-28T08:49:51;35.97;;;15.18;;
23384;SDS011;11865;45.394;10.978;2023-01-28T08:52:18;28.42;;;15.07;;
23384;SDS011;11865;45.394;10.978;2023-01-28T08:54:46;30.15;;;15.55;;
23384;SDS011;11865;45.394;10.978;2023-01-28T08:57:13;35.67;;;17.27;;
23384;SDS011;11865;45.394;10.978;2023-01-28T08:59:41;36.28;;;15.85;;
23384;SDS011;11865;45.394;10.978;2023-01-28T09:02:12;29.85;;;15.05;;
23384;SDS011;11865;45.394;10.978;2023-01-28T09:04:57;30.30;;;15.60;;
23384;SDS011;11865;45.394;10.978;2023-01-28T09:07:24;26.95;;;14.25;;
23384;SDS011;11865;45.394;10.978;2023-01-28T09:09:52;30.00;;;14.95;;
23384;SDS011;11865;45.394;10.978;2023-01-28T09:12:20;28.05;;;14.18;;
23384;SDS011;11865;45.394;10.978;2023-01-28T09:14:47;27.83;;;14.30;;
23384;SDS011;11865;45.394;10.978;2023-01-28T09:17:14;26.77;;;14.50;;
23384;SDS011;11865;45.394;10.978;2023-01-28T09:19:42;24.52;;;12.30;;
23384;SDS011;11865;45.394;10.978;2023-01-28T09:22:10;34.17;;;13.82;;
23384;SDS011;11865;45.394;10.978;2023-01-28T09:24:37;29.20;;;14.30;;
23384;SDS011;11865;45.394;10.978;2023-01-28T09:27:05;29.45;;;14.23;;
23384;SDS011;11865;45.394;10.978;2023-01-28T09:29:33;25.63;;;12.88;;
23384;SDS011;11865;45.394;10.978;2023-01-28T09:32:01;27.00;;;13.30;;
23384;SDS011;11865;45.394;10.978;2023-01-28T09:34:28;27.75;;;13.43;;
23384;SDS011;11865;45.394;10.978;2023-01-28T09:36:56;45.47;;;14.73;;
23384;SDS011;11865;45.394;10.978;2023-01-28T09:39:24;38.85;;;14.48;;
23384;SDS011;11865;45.394;10.978;2023-01-28T09:42:08;27.95;;;13.68;;
23384;SDS011;11865;45.394;10.978;2023-01-28T09:45:32;29.20;;;13.20;;
23384;SDS011;11865;45.394;10.978;2023-01-28T09:47:49;37.50;;;15.98;;
23384;SDS011;11865;45.394;10.978;2023-01-28T09:50:32;26.20;;;12.55;;
23384;SDS011;11865;45.394;10.978;2023-01-28T09:53:27;26.33;;;12.90;;
23384;SDS011;11865;45.394;10.978;2023-01-28T10:04:12;30.00;;;14.02;;
23384;SDS011;11865;45.394;10.978;2023-01-28T10:17:12;34.00;;;13.80;;
23384;SDS011;11865;45.394;10.978;2023-01-28T10:22:52;34.80;;;15.13;;
23384;SDS011;11865;45.394;10.978;2023-01-28T10:25:25;39.70;;;14.43;;
23384;SDS011;11865;45.394;10.978;2023-01-28T10:27:55;33.28;;;14.48;;
23384;SDS011;11865;45.394;10.978;2023-01-28T10:30:24;25.95;;;13.05;;
23384;SDS011;11865;45.394;10.978;2023-01-28T10:35:44;23.15;;;12.05;;
23384;SDS011;11865;45.394;10.978;2023-01-28T10:38:14;27.02;;;13.07;;
23384;SDS011;11865;45.394;10.978;2023-01-28T10:40:45;31.53;;;13.53;;
23384;SDS011;11865;45.394;10.978;2023-01-28T10:43:15;24.58;;;12.05;;
23384;SDS011;11865;45.394;10.978;2023-01-28T10:48:47;29.40;;;13.20;;
23384;SDS011;11865;45.394;10.978;2023-01-28T10:51:31;28.38;;;13.60;;
23384;SDS011;11865;45.394;10.978;2023-01-28T10:53:59;26.30;;;13.13;;
23384;SDS011;11865;45.394;10.978;2023-01-28T10:56:31;32.83;;;13.88;;
23384;SDS011;11865;45.394;10.978;2023-01-28T10:59:02;23.08;;;12.00;;
23384;SDS011;11865;45.394;10.978;2023-01-28T11:06:54;24.48;;;13.07;;
23384;SDS011;11865;45.394;10.978;2023-01-28T11:09:34;34.05;;;15.45;;
23384;SDS011;11865;45.394;10.978;2023-01-28T11:12:10;32.72;;;14.70;;
23384;SDS011;11865;45.394;10.978;2023-01-28T11:14:43;30.75;;;15.73;;
23384;SDS011;11865;45.394;10.978;2023-01-28T11:17:20;27.40;;;13.23;;
23384;SDS011;11865;45.394;10.978;2023-01-28T11:19:55;27.40;;;13.50;;
23384;SDS011;11865;45.394;10.978;2023-01-28T11:22:58;23.98;;;13.18;;
23384;SDS011;11865;45.394;10.978;2023-01-28T11:28:01;27.63;;;12.43;;
23384;SDS011;11865;45.394;10.978;2023-01-28T11:30:32;24.58;;;12.90;;
23384;SDS011;11865;45.394;10.978;2023-01-28T11:33:05;23.05;;;12.82;;
23384;SDS011;11865;45.394;10.978;2023-01-28T11:35:34;28.70;;;13.25;;
23384;SDS011;11865;45.394;10.978;2023-01-28T11:38:01;24.15;;;13.00;;
23384;SDS011;11865;45.394;10.978;2023-01-28T11:40:29;24.77;;;12.60;;
23384;SDS011;11865;45.394;10.978;2023-01-28T11:42:57;25.15;;;12.93;;
23384;SDS011;11865;45.394;10.978;2023-01-28T11:54:43;24.02;;;12.02;;
23384;SDS011;11865;45.394;10.978;2023-01-28T11:57:06;22.45;;;11.30;;
23384;SDS011;11865;45.394;10.978;2023-01-28T11:59:50;24.52;;;12.38;;
23384;SDS011;11865;45.394;10.978;2023-01-28T12:17:17;17.05;;;10.00;;
23384;SDS011;11865;45.394;10.978;2023-01-28T12:22:58;18.38;;;10.02;;
23384;SDS011;11865;45.394;10.978;2023-01-28T12:45:20;30.48;;;12.05;;
23384;SDS011;11865;45.394;10.978;2023-01-28T12:48:07;24.25;;;11.63;;
23384;SDS011;11865;45.394;10.978;2023-01-28T12:50:48;19.02;;;9.88;;
23384;SDS011;11865;45.394;10.978;2023-01-28T12:56:15;18.80;;;10.27;;
23384;SDS011;11865;45.394;10.978;2023-01-28T12:58:48;20.38;;;10.10;;
23384;SDS011;11865;45.394;10.978;2023-01-28T13:01:22;19.30;;;9.98;;
23384;SDS011;11865;45.394;10.978;2023-01-28T13:04:02;20.58;;;10.65;;
23384;SDS011;11865;45.394;10.978;2023-01-28T13:06:51;21.42;;;10.57;;
23384;SDS011;11865;45.394;10.978;2023-01-28T13:09:26;20.75;;;10.27;;
23384;SDS011;11865;45.394;10.978;2023-01-28T13:11:56;18.88;;;9.80;;
23384;SDS011;11865;45.394;10.978;2023-01-28T13:14:28;20.70;;;9.75;;
23384;SDS011;11865;45.394;10.978;2023-01-28T13:17:11;20.42;;;10.10;;
23384;SDS011;11865;45.394;10.978;2023-01-28T13:19:50;17.33;;;9.55;;
23384;SDS011;11865;45.394;10.978;2023-01-28T13:24:56;21.27;;;9.15;;
23384;SDS011;11865;45.394;10.978;2023-01-28T13:27:39;18.95;;;9.57;;
23384;SDS011;11865;45.394;10.978;2023-01-28T13:30:26;18.02;;;8.88;;
23384;SDS011;11865;45.394;10.978;2023-01-28T13:33:03;17.57;;;9.43;;
23384;SDS011;11865;45.394;10.978;2023-01-28T13:38:07;16.33;;;8.73;;
23384;SDS011;11865;45.394;10.978;2023-01-28T13:40:40;15.18;;;8.52;;
23384;SDS011;11865;45.394;10.978;2023-01-28T13:43:27;16.52;;;8.88;;
23384;SDS011;11865;45.394;10.978;2023-01-28T13:46:08;17.48;;;8.75;;
23384;SDS011;11865;45.394;10.978;2023-01-28T13:48:52;15.52;;;8.48;;
23384;SDS011;11865;45.394;10.978;2023-01-28T14:02:22;17.88;;;8.50;;
23384;SDS011;11865;45.394;10.978;2023-01-28T14:17:09;21.25;;;9.40;;
23384;SDS011;11865;45.394;10.978;2023-01-28T14:19:40;16.63;;;8.20;;
23384;SDS011;11865;45.394;10.978;2023-01-28T14:22:09;26.20;;;10.18;;
23384;SDS011;11865;45.394;10.978;2023-01-28T14:24:41;26.00;;;10.70;;
23384;SDS011;11865;45.394;10.978;2023-01-28T14:30:40;16.23;;;8.77;;
23384;SDS011;11865;45.394;10.978;2023-01-28T14:32:46;20.27;;;9.48;;
23384;SDS011;11865;45.394;10.978;2023-01-28T14:35:26;20.80;;;9.02;;
23384;SDS011;11865;45.394;10.978;2023-01-28T14:37:56;16.45;;;8.45;;
23384;SDS011;11865;45.394;10.978;2023-01-28T14:40:27;17.75;;;8.73;;
23384;SDS011;11865;45.394;10.978;2023-01-28T14:42:55;26.17;;;9.55;;
23384;SDS011;11865;45.394;10.978;2023-01-28T14:51:16;18.80;;;8.10;;
23384;SDS011;11865;45.394;10.978;2023-01-28T15:02:17;19.38;;;8.77;;
23384;SDS011;11865;45.394;10.978;2023-01-28T15:04:46;18.92;;;8.93;;
23384;SDS011;11865;45.394;10.978;2023-01-28T15:07:24;15.35;;;8.32;;
23384;SDS011;11865;45.394;10.978;2023-01-28T15:12:41;27.10;;;9.00;;
23384;SDS011;11865;45.394;10.978;2023-01-28T15:17:50;14.40;;;7.85;;
23384;SDS011;11865;45.394;10.978;2023-01-28T15:20:20;14.32;;;8.65;;
23384;SDS011;11865;45.394;10.978;2023-01-28T15:22:50;20.83;;;8.65;;
23384;SDS011;11865;45.394;10.978;2023-01-28T15:25:19;39.20;;;11.57;;
23384;SDS011;11865;45.394;10.978;2023-01-28T15:27:49;16.52;;;8.48;;
23384;SDS011;11865;45.394;10.978;2023-01-28T15:30:20;17.08;;;8.00;;
23384;SDS011;11865;45.394;10.978;2023-01-28T15:33:00;19.33;;;9.02;;
23384;SDS011;11865;45.394;10.978;2023-01-28T15:35:30;20.33;;;8.63;;
23384;SDS011;11865;45.394;10.978;2023-01-28T15:37:58;20.95;;;8.77;;
23384;SDS011;11865;45.394;10.978;2023-01-28T15:40:26;16.98;;;9.23;;
23384;SDS011;11865;45.394;10.978;2023-01-28T15:42:56;22.63;;;9.45;;
23384;SDS011;11865;45.394;10.978;2023-01-28T15:45:24;30.52;;;10.57;;
23384;SDS011;11865;45.394;10.978;2023-01-28T15:48:00;18.63;;;9.98;;
23384;SDS011;11865;45.394;10.978;2023-01-28T15:50:32;19.48;;;9.18;;
23384;SDS011;11865;45.394;10.978;2023-01-28T15:52:59;18.65;;;8.57;;
23384;SDS011;11865;45.394;10.978;2023-01-28T15:58:07;16.67;;;9.05;;
23384;SDS011;11865;45.394;10.978;2023-01-28T16:00:46;15.57;;;8.73;;
23384;SDS011;11865;45.394;10.978;2023-01-28T16:03:20;21.90;;;9.95;;
23384;SDS011;11865;45.394;10.978;2023-01-28T16:05:56;24.00;;;9.77;;
23384;SDS011;11865;45.394;10.978;2023-01-28T16:08:38;21.75;;;10.10;;
23384;SDS011;11865;45.394;10.978;2023-01-28T16:11:11;15.48;;;9.73;;
23384;SDS011;11865;45.394;10.978;2023-01-28T16:13:46;18.52;;;9.90;;
23384;SDS011;11865;45.394;10.978;2023-01-28T16:16:13;20.88;;;11.75;;
23384;SDS011;11865;45.394;10.978;2023-01-28T16:24:26;38.20;;;22.42;;
23384;SDS011;11865;45.394;10.978;2023-01-28T16:27:00;45.70;;;18.02;;
23384;SDS011;11865;45.394;10.978;2023-01-28T16:29:29;34.85;;;16.17;;
23384;SDS011;11865;45.394;10.978;2023-01-28T16:31:58;34.38;;;13.05;;
23384;SDS011;11865;45.394;10.978;2023-01-28T16:34:26;27.80;;;11.88;;
23384;SDS011;11865;45.394;10.978;2023-01-28T16:36:58;25.38;;;12.68;;
23384;SDS011;11865;45.394;10.978;2023-01-28T16:39:26;31.73;;;12.65;;
23384;SDS011;11865;45.394;10.978;2023-01-28T16:41:53;27.05;;;12.25;;
23384;SDS011;11865;45.394;10.978;2023-01-28T16:44:22;31.90;;;13.68;;
23384;SDS011;11865;45.394;10.978;2023-01-28T16:46:50;26.85;;;12.70;;
23384;SDS011;11865;45.394;10.978;2023-01-28T16:49:18;28.90;;;12.13;;
23384;SDS011;11865;45.394;10.978;2023-01-28T16:51:45;23.77;;;12.25;;
23384;SDS011;11865;45.394;10.978;2023-01-28T16:54:13;21.20;;;11.45;;
23384;SDS011;11865;45.394;10.978;2023-01-28T16:56:43;23.83;;;11.68;;
23384;SDS011;11865;45.394;10.978;2023-01-28T16:59:12;28.27;;;12.45;;
23384;SDS011;11865;45.394;10.978;2023-01-28T17:01:42;25.70;;;11.93;;
23384;SDS011;11865;45.394;10.978;2023-01-28T17:04:10;26.73;;;12.75;;
23384;SDS011;11865;45.394;10.978;2023-01-28T17:06:42;24.08;;;12.82;;
23384;SDS011;11865;45.394;10.978;2023-01-28T17:09:11;46.00;;;15.63;;
23384;SDS011;11865;45.394;10.978;2023-01-28T17:11:40;36.40;;;14.25;;
23384;SDS011;11865;45.394;10.978;2023-01-28T17:14:08;29.55;;;13.50;;
23384;SDS011;11865;45.394;10.978;2023-01-28T17:16:36;49.15;;;18.50;;
23384;SDS011;11865;45.394;10.978;2023-01-28T17:19:04;221.00;;;77.47;;
23384;SDS011;11865;45.394;10.978;2023-01-28T17:21:32;303.73;;;111.28;;
23384;SDS011;11865;45.394;10.978;2023-01-28T17:24:00;177.63;;;69.70;;
23384;SDS011;11865;45.394;10.978;2023-01-28T17:26:29;76.88;;;33.22;;
23384;SDS011;11865;45.394;10.978;2023-01-28T17:28:57;39.47;;;15.60;;
23384;SDS011;11865;45.394;10.978;2023-01-28T17:31:24;36.97;;;19.88;;
23384;SDS011;11865;45.394;10.978;2023-01-28T17:33:55;128.68;;;58.53;;
23384;SDS011;11865;45.394;10.978;2023-01-28T17:36:24;408.60;;;192.68;;
23384;SDS011;11865;45.394;10.978;2023-01-28T17:38:53;372.77;;;171.15;;
23384;SDS011;11865;45.394;10.978;2023-01-28T17:41:21;167.90;;;74.28;;